TimeCDT,TemperatureF,Dew PointF,Humidity,Sea Level PressureIn,VisibilityMPH,Wind Direction,Wind SpeedMPH,Gust SpeedMPH,PrecipitationIn,Events,Conditions,WindDirDegrees,DateUTC
12:55 AM,30.2,20.5,67,30.17,10.0,NNW,5.8,-,N/A,,Overcast,340,2013-03-26 05:55:00
1:55 AM,29.7,19.0,65,30.17,10.0,NW,9.2,-,N/A,,Overcast,320,2013-03-26 06:55:00
2:55 AM,28.6,18.9,67,30.17,10.0,NW,6.9,-,N/A,,Overcast,310,2013-03-26 07:55:00
3:55 AM,27.9,19.4,71,30.18,10.0,NNW,4.6,-,N/A,,Overcast,330,2013-03-26 08:55:00
4:55 AM,27.1,19.6,73,30.19,10.0,WNW,4.6,-,N/A,,Overcast,300,2013-03-26 09:55:00
5:55 AM,26.2,19.6,76,30.21,10.0,WNW,6.9,-,N/A,,Overcast,290,2013-03-26 10:55:00
6:55 AM,26.6,19.4,74,30.22,10.0,WNW,6.9,-,N/A,,Overcast,290,2013-03-26 11:55:00
7:55 AM,26.6,19.4,74,30.24,10.0,WNW,6.9,-,N/A,,Overcast,290,2013-03-26 12:55:00
8:17 AM,26.6,19.4,74,30.25,10.0,WNW,8.1,-,N/A,Snow,Light Snow,290,2013-03-26 13:17:00
8:55 AM,28.4,19.4,69,30.25,10.0,WNW,6.9,-,N/A,,Mostly Cloudy,290,2013-03-26 13:55:00
9:55 AM,32.0,23.0,69,30.26,10.0,NNW,5.8,-,N/A,,Mostly Cloudy,330,2013-03-26 14:55:00
10:24 AM,33.8,23.0,65,30.23,10.0,Variable,5.8,-,N/A,Snow,Light Snow Showers,0,2013-03-26 15:24:00
10:55 AM,33.8,24.8,70,30.27,10.0,North,8.1,-,N/A,Snow,Light Snow Showers,350,2013-03-26 15:55:00
11:05 AM,33.8,24.8,70,30.26,10.0,NNW,6.9,-,N/A,,Overcast,330,2013-03-26 16:05:00
11:55 AM,37.4,23.0,56,30.25,10.0,NNW,6.9,-,N/A,Snow,Light Snow Showers,340,2013-03-26 16:55:00
12:55 PM,37.4,23.0,56,30.25,10.0,West,11.5,-,N/A,,Overcast,280,2013-03-26 17:55:00
1:55 PM,37.4,23.0,56,30.25,10.0,NW,9.2,-,N/A,,Overcast,310,2013-03-26 18:55:00
2:55 PM,37.4,23.0,56,30.25,10.0,West,9.2,-,N/A,,Overcast,280,2013-03-26 19:55:00
3:55 PM,37.4,21.2,52,30.24,10.0,WNW,10.4,-,N/A,,Overcast,290,2013-03-26 20:55:00
4:55 PM,37.4,21.2,52,30.25,10.0,WNW,9.2,-,N/A,,Overcast,290,2013-03-26 21:55:00